• Join FlightAware (Why Join?)
  • Login
  • US Flag 
03:10AM EDT


 

Airport Tracker/Info


-or-


 

Live Flight TrackerFlight Track Log ✈ N521BD ✈ 03-Jul-2013 ✈ KCNM - KGKY

Flight Track Log - Related Links

Times and Time Zones

All times are in EDT time to prevent confusion due to time zone crossing. See the N521BD flight status page for this flight to view local times or setup timezone preferences in your user account.

Time Position Orientation Groundspeed Altitude Reporting Facility
EDT Latitude Longitude Course Direction KTS MPH feet Rate Location/Type
02:18PM 32.3386 -104.0750 88° East 108 124 7,100  Level Albuquerque Center
02:19PM 32.3378 -104.0353 91° East 113 130 7,800 780 Climbing Albuquerque Center
02:21PM 32.3356 -103.9869 93° East 122 140 8,700 720 Climbing Albuquerque Center
02:22PM 32.3353 -103.9469 90° East 123 142 9,400 720 Climbing Albuquerque Center
02:23PM 32.3358 -103.9089 89° East 119 137 10,200 720 Climbing Albuquerque Center
02:24PM 32.3350 -103.8700 91° East 117 135 10,900 360 Climbing Albuquerque Center
02:25PM 32.3350 -103.8250 90° East 132 152 11,000  Climbing Albuquerque Center
02:26PM 32.3333 -103.7736 92° East 150 173 11,000 -60 Level Albuquerque Center
02:27PM 32.3344 -103.7150 89° East 151 174 10,900 -60 Descending Albuquerque Center
02:28PM 32.3328 -103.6656 92° East 150 173 10,900  Level Albuquerque Center
02:29PM 32.3331 -103.6153 90° East 153 176 10,900  Level Albuquerque Center
02:30PM 32.3336 -103.5661 89° East 152 175 10,900  Level Albuquerque Center
02:31PM 32.3322 -103.5167 92° East 150 173 10,900  Level Albuquerque Center
02:32PM 32.3317 -103.4656 91° East 154 177 10,900  Level Albuquerque Center
02:34PM 32.3322 -103.3406 90° East 148 170 11,100  Climbing Fort Worth Center
02:35PM 32.3306 -103.2889 92° East 148 170 11,000 -60 Descending Fort Worth Center
02:36PM 32.3286 -103.2397 93° East 148 170 11,000  Level Fort Worth Center
02:37PM 32.3289 -103.1881 90° East 148 170 11,000  Level Fort Worth Center
02:38PM 32.3269 -103.1411 93° East 148 170 11,000  Level Fort Worth Center
02:39PM 32.3231 -103.0894 95° East 148 170 11,000  Level Fort Worth Center
02:40PM 32.3253 -103.0378 87° East 148 170 11,000  Level Fort Worth Center
02:41PM 32.3256 -102.9864 90° East 153 176 11,000  Level Fort Worth Center
02:42PM 32.3256 -102.9372 90° East 153 176 11,000  Level Fort Worth Center
02:43PM 32.3236 -102.8853 93° East 153 176 11,000  Level Fort Worth Center
02:44PM 32.3217 -102.8361 93° East 153 176 11,000  Level Fort Worth Center
02:45PM 32.3217 -102.7869 90° East 153 176 11,100  Climbing Fort Worth Center
02:46PM 32.3197 -102.7328 92° East 153 176 11,100  Level Fort Worth Center
02:47PM 32.3197 -102.6836 90° East 153 176 11,100  Level Fort Worth Center
02:48PM 32.3197 -102.6344 90° East 148 170 11,100 -60 Level Fort Worth Center
02:49PM 32.3175 -102.5853 93° East 148 170 11,000  Descending Fort Worth Center
02:50PM 32.3156 -102.5358 93° East 148 170 11,100  Climbing Fort Worth Center
02:51PM 32.3156 -102.4844 90° East 148 170 11,100  Level Fort Worth Center
02:52PM 32.3153 -102.4350 90° East 148 170 11,100  Level Fort Worth Center
02:53PM 32.3131 -102.3858 93° East 148 170 11,100  Level Fort Worth Center
02:54PM 32.3131 -102.3342 90° East 148 170 11,100  Level Fort Worth Center
02:55PM 32.3108 -102.2825 93° East 148 170 11,100 -60 Level Fort Worth Center
02:57PM 32.3085 -102.2217 93° East  Level FlightAware Approximate
03:03PM 32.3050 -101.8792 93° East 147 169 11,000  Level Fort Worth Center
03:04PM 32.2949 -101.8765 93° East  Level FlightAware Approximate
03:04PM 32.3025 -101.8325 94° East 147 169 11,000  Level Fort Worth Center
03:05PM 32.2929 -101.8272 93° East  Level FlightAware Approximate
03:05PM 32.3000 -101.7831 93° East 157 181 11,000  Level Fort Worth Center
03:06PM 32.2909 -101.7779 93° East  Level FlightAware Approximate
03:06PM 32.2997 -101.7339 90° East 157 181 10,900  Level Fort Worth Center
03:07PM 32.2888 -101.7286 93° East  Level FlightAware Approximate
03:07PM 32.2994 -101.6822 90° East 157 181 11,000  Level Fort Worth Center
03:08PM 32.2867 -101.6793 93° East  Level FlightAware Approximate
03:08PM 32.2969 -101.6306 93° East 157 181 10,900  Level Fort Worth Center
03:09PM 32.2846 -101.6300 93° East  Level FlightAware Approximate
03:09PM 32.2944 -101.5814 93° East 157 181 10,900  Level Fort Worth Center
03:10PM 32.2939 -101.5297 91° East 157 181 11,000  Climbing Fort Worth Center
03:11PM 32.2936 -101.4806 90° East 157 181 10,900  Descending Fort Worth Center
03:12PM 32.2908 -101.4314 94° East 152 175 11,000  Climbing Fort Worth Center
03:13PM 32.2903 -101.3847 91° East 147 169 11,000  Level Fort Worth Center
03:14PM 32.2858 -101.3303 96° East 147 169 11,000 -60 Level Fort Worth Center
03:15PM 32.2872 -101.2814 88° East 147 169 10,900  Descending Fort Worth Center
03:16PM 32.2867 -101.2297 91° East 153 176 11,000  Climbing Fort Worth Center
03:17PM 32.2864 -101.1781 90° East 158 182 11,000  Level Fort Worth Center
03:18PM 32.2836 -101.1264 94° East 158 182 11,000  Level Fort Worth Center
03:19PM 32.2811 -101.0747 93° East 158 182 11,000 -60 Level Fort Worth Center
03:20PM 32.2803 -101.0231 91° East 158 182 10,900  Descending Fort Worth Center
03:21PM 32.2775 -100.9736 94° East 158 182 11,000  Climbing Fort Worth Center
03:22PM 32.2769 -100.9269 91° East 153 176 11,000  Level Fort Worth Center
03:23PM 32.2742 -100.8753 94° East 153 176 11,000  Level Fort Worth Center
03:24PM 32.2714 -100.8236 94° East 153 176 11,000  Level Fort Worth Center
03:25PM 32.2725 -100.7844 88° East 153 176 11,000  Level Fort Worth Center
03:26PM 32.2694 -100.7350 94° East 143 165 11,000 -60 Level Fort Worth Center
03:27PM 32.2667 -100.6883 94° East 143 165 10,900  Descending Fort Worth Center
03:28PM 32.2658 -100.6367 91° East 143 165 11,000  Climbing Fort Worth Center
03:29PM 32.2631 -100.5875 94° East 143 165 11,000  Level Fort Worth Center
03:30PM 32.2622 -100.5358 91° East 143 165 11,000  Level Fort Worth Center
03:31PM 32.2614 -100.4867 91° East 143 165 11,000  Level Fort Worth Center
03:32PM 32.2603 -100.4400 92° East 143 165 11,000  Level Fort Worth Center
03:33PM 32.2553 -100.3908 97° East 143 165 11,000  Level Fort Worth Center
03:34PM 32.2564 -100.3442 88° East 143 165 11,000  Level Fort Worth Center
03:35PM 32.2533 -100.2925 94° East 143 165 11,000  Level Fort Worth Center
03:36PM 32.2525 -100.2408 91° East 143 165 11,000  Level Fort Worth Center
03:37PM 32.2514 -100.1917 92° East 143 165 11,000  Level Fort Worth Center
03:38PM 32.2483 -100.1425 94° East 143 165 11,000  Level Fort Worth Center
03:39PM 32.2453 -100.0933 94° East 143 165 11,000  Level Fort Worth Center
03:40PM 32.2442 -100.0439 92° East 143 165 11,000  Level Fort Worth Center
03:41PM 32.2431 -99.9950 92° East 143 165 11,000  Level Fort Worth Center
03:42PM 32.2400 -99.9383 94° East 148 170 11,000  Level Fort Worth Center
03:43PM 32.2386 -99.9014 93° East 148 170 11,000  Level Fort Worth Center
03:45PM 32.2348 -99.8407 94° East  Level FlightAware Approximate
03:51PM 32.2250 -99.5106 92° East 156 180 11,000  Level Fort Worth Center
03:52PM 32.2224 -99.4956 92° East  Level FlightAware Approximate
03:52PM 32.2236 -99.4614 92° East 156 180 11,000  Level Fort Worth Center
03:53PM 32.2207 -99.4463 92° East  Level FlightAware Approximate
03:53PM 32.2225 -99.4122 92° East 151 174 11,000  Level Fort Worth Center
03:54PM 32.2189 -99.3971 92° East  Level FlightAware Approximate
03:54PM 32.2211 -99.3631 92° East 151 174 11,000  Level Fort Worth Center
03:55PM 32.2171 -99.3478 92° East  Level FlightAware Approximate
03:55PM 32.2197 -99.3164 92° East 146 168 11,000  Level Fort Worth Center
03:56PM 32.2153 -99.2985 92° East  Level FlightAware Approximate
03:56PM 32.2164 -99.2625 94° East 146 168 11,000  Level Fort Worth Center
03:57PM 32.2150 -99.2083 92° East 151 174 11,000  Level Fort Worth Center
03:58PM 32.2117 -99.1617 95° East 151 174 11,000  Level Fort Worth Center
04:00PM 32.2108 -99.0586 91° East 151 174 11,000  Level Fort Worth Center
04:01PM 32.2094 -99.0094 92° East 151 174 11,000  Level Fort Worth Center
04:02PM 32.2058 -98.9603 95° East 151 174 11,000  Level Fort Worth Center
04:03PM 32.2044 -98.9086 92° East 151 174 11,000  Level Fort Worth Center
04:04PM 32.2028 -98.8669 93° East 151 174 11,000  Level Fort Worth Center
04:05PM 32.2014 -98.8153 92° East 151 174 11,000  Level Fort Worth Center
04:06PM 32.1978 -98.7661 95° East 146 168 11,000  Level Fort Worth Center
04:07PM 32.1961 -98.7169 92° East 141 162 11,000  Level Fort Worth Center
04:08PM 32.1944 -98.6656 92° East 141 162 11,000  Level Fort Worth Center
04:09PM 32.1886 -98.6161 98° East 141 162 11,000  Level Fort Worth Center
04:10PM 32.1892 -98.5672 89° East 141 162 11,000  Level Fort Worth Center
04:11PM 32.1856 -98.5181 95° East 141 162 11,000  Level Fort Worth Center
04:12PM 32.1858 -98.4664 90° East 146 168 11,000  Level Fort Worth Center
04:13PM 32.1864 -98.4100 89° East 146 168 11,000  Level Fort Worth Center
04:14PM 32.1825 -98.3608 95° East 146 168 11,000  Level Fort Worth Center
04:15PM 32.1808 -98.3069 92° East 151 174 11,000  Level Fort Worth Center
04:16PM 32.1811 -98.2578 90° East 151 174 11,000  Level Fort Worth Center
04:17PM 32.1794 -98.2086 92° East 156 180 11,000 -240 Level Fort Worth Center
04:18PM 32.1839 -98.1572 84° East 156 180 10,600 -420 Descending Fort Worth Center
04:19PM 32.1925 -98.1056 79° East 156 180 10,200 -480 Descending Fort Worth Center
04:20PM 32.1992 -98.0592 80° East 156 180 9,700 -480 Descending Fort Worth Center
04:21PM 32.2056 -98.0100 81° East 156 180 9,300 -480 Descending Fort Worth Center
04:22PM 32.2122 -97.9586 81° East 151 174 8,800 -480 Descending Fort Worth Center
04:23PM 32.2186 -97.9119 81° East 146 168 8,400 -480 Descending Fort Worth Center
04:24PM 32.2272 -97.8653 78° East 146 168 7,900 -480 Descending Fort Worth Center
04:25PM 32.2336 -97.8186 81° East 146 168 7,500 -480 Descending Fort Worth Center
04:26PM 32.2419 -97.7694 79° East 146 168 7,000 -600 Descending Fort Worth Center
04:27PM 32.2483 -97.7278 80° East 141 162 6,400 -600 Descending Fort Worth Center
04:28PM 32.2528 -97.6811 84° East 141 162 5,900 -600 Descending Fort Worth Center
04:29PM 32.2633 -97.6394 73° East 141 162 5,300 -600 Descending Fort Worth Center
04:30PM 32.2903 -97.6100 43° Northeast 129 148 4,800 -540 Descending Fort Worth Center
04:31PM 32.3133 -97.5756 52° Northeast 129 148 4,300 -420 Descending Fort Worth Center
04:32PM 32.3386 -97.5414 49° Northeast 129 148 4,000 -180 Descending Fort Worth Center
04:33PM 32.3614 -97.5094 50° Northeast 134 154 4,000  Level Fort Worth Center
04:34PM 32.3844 -97.4772 50° Northeast 129 148 4,000  Level Fort Worth Center
04:35PM 32.4094 -97.4453 47° Northeast 129 148 4,000  Level Fort Worth Center
04:36PM 32.4325 -97.4108 52° Northeast 134 154 4,100  Climbing Fort Worth Center
04:37PM 32.4597 -97.3764 47° Northeast 134 154 4,100 -60 Level Fort Worth Center
04:38PM 32.4847 -97.3419 49° Northeast 134 154 4,000  Descending Fort Worth Center
04:39PM 32.5078 -97.3125 47° Northeast 128 147 4,100 -300 Climbing Fort Worth Center
04:40PM 32.5328 -97.2803 47° Northeast 128 147 3,500 -660 Descending Fort Worth Center
04:41PM 32.5667 -97.2333 49° Northeast 125 144 2,700 -480 Descending Dallas / Fort Worth TRACON
04:42PM 32.5833 -97.2000 59° Northeast 133 153 2,500 -120 Descending Dallas / Fort Worth TRACON
04:43PM 32.6000 -97.1667 59° Northeast 134 154 2,500 -240 Level Dallas / Fort Worth TRACON
04:44PM 32.6167 -97.1333 59° Northeast 138 159 2,100 -540 Descending Dallas / Fort Worth TRACON
04:45PM 32.6333 -97.1000 59° Northeast 114 131 1,500 -600 Descending Dallas / Fort Worth TRACON
04:46PM 32.6500 -97.0833 40° Northeast 85 98 900 -600 Descending Dallas / Fort Worth TRACON
04:48PM 32.6639 -97.0943 40° Northeast  Level Estimated